sensor_id;sensor_type;location;lat;lon;timestamp;temperature;humidity
12634;DHT22;6382;48.614;8.880;2023-04-30T00:02:11;11.30;99.90
12634;DHT22;6382;48.614;8.880;2023-04-30T00:04:38;10.30;99.90
12634;DHT22;6382;48.614;8.880;2023-04-30T00:07:04;10.30;99.90
12634;DHT22;6382;48.614;8.880;2023-04-30T00:09:31;10.60;99.90
12634;DHT22;6382;48.614;8.880;2023-04-30T00:11:58;10.30;99.90
12634;DHT22;6382;48.614;8.880;2023-04-30T00:14:24;10.30;99.90
12634;DHT22;6382;48.614;8.880;2023-04-30T00:16:52;10.20;99.90
12634;DHT22;6382;48.614;8.880;2023-04-30T00:19:18;10.20;99.90
12634;DHT22;6382;48.614;8.880;2023-04-30T00:21:45;12.90;99.90
12634;DHT22;6382;48.614;8.880;2023-04-30T00:24:13;10.20;99.90
12634;DHT22;6382;48.614;8.880;2023-04-30T00:26:39;10.20;99.90
12634;DHT22;6382;48.614;8.880;2023-04-30T00:29:09;12.10;99.90
12634;DHT22;6382;48.614;8.880;2023-04-30T00:31:36;12.50;99.90
12634;DHT22;6382;48.614;8.880;2023-04-30T00:34:02;10.10;99.90
12634;DHT22;6382;48.614;8.880;2023-04-30T00:36:29;10.00;99.90
12634;DHT22;6382;48.614;8.880;2023-04-30T00:38:57;10.00;99.90
12634;DHT22;6382;48.614;8.880;2023-04-30T00:41:24;9.90;99.90
12634;DHT22;6382;48.614;8.880;2023-04-30T00:43:51;9.90;99.90
12634;DHT22;6382;48.614;8.880;2023-04-30T00:46:17;9.90;99.90
12634;DHT22;6382;48.614;8.880;2023-04-30T00:48:44;9.90;99.90
12634;DHT22;6382;48.614;8.880;2023-04-30T00:51:11;12.40;99.90
12634;DHT22;6382;48.614;8.880;2023-04-30T00:53:38;9.90;99.90
12634;DHT22;6382;48.614;8.880;2023-04-30T00:56:07;9.90;99.90
12634;DHT22;6382;48.614;8.880;2023-04-30T00:58:34;9.90;99.90
12634;DHT22;6382;48.614;8.880;2023-04-30T01:01:04;12.60;99.90
12634;DHT22;6382;48.614;8.880;2023-04-30T01:03:32;9.90;99.90
12634;DHT22;6382;48.614;8.880;2023-04-30T01:06:01;12.50;99.90
12634;DHT22;6382;48.614;8.880;2023-04-30T01:08:31;9.90;99.90
12634;DHT22;6382;48.614;8.880;2023-04-30T01:13:39;9.80;99.90
12634;DHT22;6382;48.614;8.880;2023-04-30T01:16:18;9.80;99.90
12634;DHT22;6382;48.614;8.880;2023-04-30T01:18:51;9.80;99.90
12634;DHT22;6382;48.614;8.880;2023-04-30T01:21:19;10.80;99.90
12634;DHT22;6382;48.614;8.880;2023-04-30T01:23:54;9.80;99.90
12634;DHT22;6382;48.614;8.880;2023-04-30T01:28:53;9.80;99.90
12634;DHT22;6382;48.614;8.880;2023-04-30T01:31:22;13.00;99.90
12634;DHT22;6382;48.614;8.880;2023-04-30T01:33:49;9.80;99.90
12634;DHT22;6382;48.614;8.880;2023-04-30T01:38:49;9.80;99.90
12634;DHT22;6382;48.614;8.880;2023-04-30T01:46:35;9.70;99.90
12634;DHT22;6382;48.614;8.880;2023-04-30T01:49:05;12.20;99.90
12634;DHT22;6382;48.614;8.880;2023-04-30T01:51:41;9.70;99.90
12634;DHT22;6382;48.614;8.880;2023-04-30T01:54:11;9.70;99.90
12634;DHT22;6382;48.614;8.880;2023-04-30T01:56:43;10.90;99.90
12634;DHT22;6382;48.614;8.880;2023-04-30T01:59:11;10.40;99.90
12634;DHT22;6382;48.614;8.880;2023-04-30T02:01:40;9.80;99.90
12634;DHT22;6382;48.614;8.880;2023-04-30T02:04:07;11.90;99.90
12634;DHT22;6382;48.614;8.880;2023-04-30T02:06:33;9.70;99.90
12634;DHT22;6382;48.614;8.880;2023-04-30T02:09:00;9.80;99.90
12634;DHT22;6382;48.614;8.880;2023-04-30T02:11:32;9.80;99.90
12634;DHT22;6382;48.614;8.880;2023-04-30T02:13:59;11.20;99.90
12634;DHT22;6382;48.614;8.880;2023-04-30T02:16:25;9.70;99.90
12634;DHT22;6382;48.614;8.880;2023-04-30T02:18:52;9.70;99.90
12634;DHT22;6382;48.614;8.880;2023-04-30T02:21:19;9.70;99.90
12634;DHT22;6382;48.614;8.880;2023-04-30T02:23:46;9.60;99.90
12634;DHT22;6382;48.614;8.880;2023-04-30T02:26:13;9.60;99.90
12634;DHT22;6382;48.614;8.880;2023-04-30T02:28:40;9.60;99.90
12634;DHT22;6382;48.614;8.880;2023-04-30T02:31:08;9.60;99.90
12634;DHT22;6382;48.614;8.880;2023-04-30T02:33:34;11.90;99.90
12634;DHT22;6382;48.614;8.880;2023-04-30T02:36:01;11.60;99.90
12634;DHT22;6382;48.614;8.880;2023-04-30T02:38:28;9.50;99.90
12634;DHT22;6382;48.614;8.880;2023-04-30T02:40:54;9.50;99.90
12634;DHT22;6382;48.614;8.880;2023-04-30T02:43:21;9.50;99.90
12634;DHT22;6382;48.614;8.880;2023-04-30T02:45:48;9.50;99.90
12634;DHT22;6382;48.614;8.880;2023-04-30T02:48:15;9.50;99.90
12634;DHT22;6382;48.614;8.880;2023-04-30T02:50:41;11.90;99.90
12634;DHT22;6382;48.614;8.880;2023-04-30T02:53:08;9.50;99.90
12634;DHT22;6382;48.614;8.880;2023-04-30T02:55:35;9.50;99.90
12634;DHT22;6382;48.614;8.880;2023-04-30T02:58:01;9.50;99.90
12634;DHT22;6382;48.614;8.880;2023-04-30T03:00:28;11.30;99.90
12634;DHT22;6382;48.614;8.880;2023-04-30T03:02:55;9.50;99.90
12634;DHT22;6382;48.614;8.880;2023-04-30T03:05:22;9.50;99.90
12634;DHT22;6382;48.614;8.880;2023-04-30T03:07:49;9.50;99.90
12634;DHT22;6382;48.614;8.880;2023-04-30T03:10:15;9.50;99.90
12634;DHT22;6382;48.614;8.880;2023-04-30T03:12:44;9.40;99.90
12634;DHT22;6382;48.614;8.880;2023-04-30T03:15:11;9.50;99.90
12634;DHT22;6382;48.614;8.880;2023-04-30T03:17:37;11.90;99.90
12634;DHT22;6382;48.614;8.880;2023-04-30T03:20:04;9.40;99.90
12634;DHT22;6382;48.614;8.880;2023-04-30T03:22:31;9.40;99.90
12634;DHT22;6382;48.614;8.880;2023-04-30T03:24:58;9.40;99.90
12634;DHT22;6382;48.614;8.880;2023-04-30T03:27:24;9.40;99.90
12634;DHT22;6382;48.614;8.880;2023-04-30T03:29:51;9.40;99.90
12634;DHT22;6382;48.614;8.880;2023-04-30T03:32:18;9.40;99.90
12634;DHT22;6382;48.614;8.880;2023-04-30T03:34:45;9.40;99.90
12634;DHT22;6382;48.614;8.880;2023-04-30T03:37:12;12.40;99.90
12634;DHT22;6382;48.614;8.880;2023-04-30T03:39:38;10.20;99.90
12634;DHT22;6382;48.614;8.880;2023-04-30T03:42:05;9.30;99.90
12634;DHT22;6382;48.614;8.880;2023-04-30T03:44:32;9.30;99.90
12634;DHT22;6382;48.614;8.880;2023-04-30T03:46:59;12.30;99.90
12634;DHT22;6382;48.614;8.880;2023-04-30T03:49:25;9.20;99.90
12634;DHT22;6382;48.614;8.880;2023-04-30T03:51:52;12.20;99.90
12634;DHT22;6382;48.614;8.880;2023-04-30T03:54:18;9.20;99.90
12634;DHT22;6382;48.614;8.880;2023-04-30T03:56:45;9.20;99.90
12634;DHT22;6382;48.614;8.880;2023-04-30T03:59:12;9.20;99.90
12634;DHT22;6382;48.614;8.880;2023-04-30T04:01:38;9.20;99.90
12634;DHT22;6382;48.614;8.880;2023-04-30T04:04:05;9.10;99.90
12634;DHT22;6382;48.614;8.880;2023-04-30T04:06:32;9.70;99.90
12634;DHT22;6382;48.614;8.880;2023-04-30T04:08:59;9.20;99.90
12634;DHT22;6382;48.614;8.880;2023-04-30T04:11:25;9.10;99.90
12634;DHT22;6382;48.614;8.880;2023-04-30T04:13:52;11.90;99.90
12634;DHT22;6382;48.614;8.880;2023-04-30T04:16:19;9.10;99.90
12634;DHT22;6382;48.614;8.880;2023-04-30T04:18:45;12.00;99.90
12634;DHT22;6382;48.614;8.880;2023-04-30T04:21:12;9.10;99.90
12634;DHT22;6382;48.614;8.880;2023-04-30T04:23:39;11.20;99.90
12634;DHT22;6382;48.614;8.880;2023-04-30T04:26:05;9.10;99.90
12634;DHT22;6382;48.614;8.880;2023-04-30T04:28:32;9.10;99.90
12634;DHT22;6382;48.614;8.880;2023-04-30T04:30:59;9.10;99.90
12634;DHT22;6382;48.614;8.880;2023-04-30T04:33:26;9.10;99.90
12634;DHT22;6382;48.614;8.880;2023-04-30T04:35:53;9.10;99.90
12634;DHT22;6382;48.614;8.880;2023-04-30T04:38:20;9.10;99.90
12634;DHT22;6382;48.614;8.880;2023-04-30T04:40:51;9.20;99.90
12634;DHT22;6382;48.614;8.880;2023-04-30T04:43:20;9.20;99.90
12634;DHT22;6382;48.614;8.880;2023-04-30T04:45:46;9.30;99.90
12634;DHT22;6382;48.614;8.880;2023-04-30T04:48:13;9.30;99.90
12634;DHT22;6382;48.614;8.880;2023-04-30T04:50:40;9.30;99.90
12634;DHT22;6382;48.614;8.880;2023-04-30T04:53:07;9.40;99.90
12634;DHT22;6382;48.614;8.880;2023-04-30T04:55:33;9.40;99.90
12634;DHT22;6382;48.614;8.880;2023-04-30T04:58:01;9.50;99.90
12634;DHT22;6382;48.614;8.880;2023-04-30T05:00:28;9.50;99.90
12634;DHT22;6382;48.614;8.880;2023-04-30T05:02:55;9.60;99.90
12634;DHT22;6382;48.614;8.880;2023-04-30T05:05:22;9.60;99.90
12634;DHT22;6382;48.614;8.880;2023-04-30T05:07:49;9.60;99.90
12634;DHT22;6382;48.614;8.880;2023-04-30T05:10:18;9.60;99.90
12634;DHT22;6382;48.614;8.880;2023-04-30T05:12:44;9.70;99.90
12634;DHT22;6382;48.614;8.880;2023-04-30T05:15:11;11.70;99.90
12634;DHT22;6382;48.614;8.880;2023-04-30T05:17:38;9.80;99.90
12634;DHT22;6382;48.614;8.880;2023-04-30T05:20:05;9.80;99.90
12634;DHT22;6382;48.614;8.880;2023-04-30T05:22:32;9.80;99.90
12634;DHT22;6382;48.614;8.880;2023-04-30T05:24:59;9.80;99.90
12634;DHT22;6382;48.614;8.880;2023-04-30T05:27:26;9.80;99.90
12634;DHT22;6382;48.614;8.880;2023-04-30T05:29:53;9.80;99.90
12634;DHT22;6382;48.614;8.880;2023-04-30T05:32:21;9.80;99.90
12634;DHT22;6382;48.614;8.880;2023-04-30T05:34:48;9.80;99.90
12634;DHT22;6382;48.614;8.880;2023-04-30T05:37:15;10.40;99.90
12634;DHT22;6382;48.614;8.880;2023-04-30T05:39:43;10.00;99.90
12634;DHT22;6382;48.614;8.880;2023-04-30T05:42:10;10.00;99.90
12634;DHT22;6382;48.614;8.880;2023-04-30T05:44:36;11.00;99.90
12634;DHT22;6382;48.614;8.880;2023-04-30T05:47:03;10.10;99.90
12634;DHT22;6382;48.614;8.880;2023-04-30T05:49:30;10.20;99.90
12634;DHT22;6382;48.614;8.880;2023-04-30T05:52:01;10.10;99.90
12634;DHT22;6382;48.614;8.880;2023-04-30T05:54:29;11.90;99.90
12634;DHT22;6382;48.614;8.880;2023-04-30T05:56:56;12.40;99.90
12634;DHT22;6382;48.614;8.880;2023-04-30T05:59:23;10.30;99.90
12634;DHT22;6382;48.614;8.880;2023-04-30T06:01:50;10.30;99.90
12634;DHT22;6382;48.614;8.880;2023-04-30T06:04:17;12.50;99.90
12634;DHT22;6382;48.614;8.880;2023-04-30T06:06:44;13.70;99.90
12634;DHT22;6382;48.614;8.880;2023-04-30T06:09:11;10.70;99.90
12634;DHT22;6382;48.614;8.880;2023-04-30T06:11:38;10.60;99.90
12634;DHT22;6382;48.614;8.880;2023-04-30T06:14:08;11.40;99.90
12634;DHT22;6382;48.614;8.880;2023-04-30T06:16:35;10.70;99.90
12634;DHT22;6382;48.614;8.880;2023-04-30T06:19:02;10.80;99.90
12634;DHT22;6382;48.614;8.880;2023-04-30T06:21:28;12.20;99.90
12634;DHT22;6382;48.614;8.880;2023-04-30T06:23:55;10.80;99.90
12634;DHT22;6382;48.614;8.880;2023-04-30T06:26:22;10.80;99.90
12634;DHT22;6382;48.614;8.880;2023-04-30T06:28:48;10.80;99.90
12634;DHT22;6382;48.614;8.880;2023-04-30T06:31:15;10.80;99.90
12634;DHT22;6382;48.614;8.880;2023-04-30T06:33:42;10.90;99.90
12634;DHT22;6382;48.614;8.880;2023-04-30T06:36:09;11.00;99.90
12634;DHT22;6382;48.614;8.880;2023-04-30T06:38:36;10.90;99.90
12634;DHT22;6382;48.614;8.880;2023-04-30T06:41:03;10.90;99.90
12634;DHT22;6382;48.614;8.880;2023-04-30T06:43:29;12.10;99.90
12634;DHT22;6382;48.614;8.880;2023-04-30T06:45:56;11.00;99.90
12634;DHT22;6382;48.614;8.880;2023-04-30T06:48:23;11.00;99.90
12634;DHT22;6382;48.614;8.880;2023-04-30T06:50:50;11.10;99.90
12634;DHT22;6382;48.614;8.880;2023-04-30T06:53:17;13.10;99.90
12634;DHT22;6382;48.614;8.880;2023-04-30T06:55:44;11.20;99.90
12634;DHT22;6382;48.614;8.880;2023-04-30T06:58:12;11.20;99.90
12634;DHT22;6382;48.614;8.880;2023-04-30T07:00:39;13.70;99.90
12634;DHT22;6382;48.614;8.880;2023-04-30T07:03:06;12.80;99.90
12634;DHT22;6382;48.614;8.880;2023-04-30T07:05:32;12.80;99.90
12634;DHT22;6382;48.614;8.880;2023-04-30T07:08:00;11.20;99.90
12634;DHT22;6382;48.614;8.880;2023-04-30T07:10:26;12.90;99.90
12634;DHT22;6382;48.614;8.880;2023-04-30T07:12:53;11.20;99.90
12634;DHT22;6382;48.614;8.880;2023-04-30T07:15:20;11.30;99.90
12634;DHT22;6382;48.614;8.880;2023-04-30T07:17:47;11.30;99.90
12634;DHT22;6382;48.614;8.880;2023-04-30T07:20:14;11.40;99.90
12634;DHT22;6382;48.614;8.880;2023-04-30T07:22:41;13.60;99.90
12634;DHT22;6382;48.614;8.880;2023-04-30T07:25:10;13.50;99.90
12634;DHT22;6382;48.614;8.880;2023-04-30T07:27:37;11.50;99.90
12634;DHT22;6382;48.614;8.880;2023-04-30T07:30:04;11.60;99.90
12634;DHT22;6382;48.614;8.880;2023-04-30T07:32:30;11.70;99.90
12634;DHT22;6382;48.614;8.880;2023-04-30T07:34:57;12.00;99.90
12634;DHT22;6382;48.614;8.880;2023-04-30T07:37:24;13.30;99.90
12634;DHT22;6382;48.614;8.880;2023-04-30T07:39:51;14.40;99.90
12634;DHT22;6382;48.614;8.880;2023-04-30T07:42:18;14.40;99.90
12634;DHT22;6382;48.614;8.880;2023-04-30T07:44:45;15.40;99.90
12634;DHT22;6382;48.614;8.880;2023-04-30T07:47:14;13.90;99.90
12634;DHT22;6382;48.614;8.880;2023-04-30T07:49:41;14.70;99.90
12634;DHT22;6382;48.614;8.880;2023-04-30T07:52:07;14.90;99.90
12634;DHT22;6382;48.614;8.880;2023-04-30T07:54:36;14.90;99.90
12634;DHT22;6382;48.614;8.880;2023-04-30T07:57:04;15.20;99.90
12634;DHT22;6382;48.614;8.880;2023-04-30T07:59:32;13.30;99.90
12634;DHT22;6382;48.614;8.880;2023-04-30T08:01:58;15.10;99.90
12634;DHT22;6382;48.614;8.880;2023-04-30T08:04:25;12.60;99.90
12634;DHT22;6382;48.614;8.880;2023-04-30T08:06:52;14.20;99.90
12634;DHT22;6382;48.614;8.880;2023-04-30T08:09:19;13.50;99.90
12634;DHT22;6382;48.614;8.880;2023-04-30T08:11:46;12.80;99.90
12634;DHT22;6382;48.614;8.880;2023-04-30T08:14:13;14.70;99.90
12634;DHT22;6382;48.614;8.880;2023-04-30T08:16:40;15.20;99.90
12634;DHT22;6382;48.614;8.880;2023-04-30T08:19:06;14.40;99.90
12634;DHT22;6382;48.614;8.880;2023-04-30T08:21:33;14.90;99.90
12634;DHT22;6382;48.614;8.880;2023-04-30T08:24:00;14.40;99.90
12634;DHT22;6382;48.614;8.880;2023-04-30T08:26:26;12.80;99.90
12634;DHT22;6382;48.614;8.880;2023-04-30T08:28:53;14.70;99.90
12634;DHT22;6382;48.614;8.880;2023-04-30T08:31:20;14.70;99.90
12634;DHT22;6382;48.614;8.880;2023-04-30T08:33:47;14.80;99.90
12634;DHT22;6382;48.614;8.880;2023-04-30T08:36:13;15.90;99.90
12634;DHT22;6382;48.614;8.880;2023-04-30T08:38:40;14.80;99.90
12634;DHT22;6382;48.614;8.880;2023-04-30T08:41:08;13.90;99.90
12634;DHT22;6382;48.614;8.880;2023-04-30T08:43:36;13.60;99.90
12634;DHT22;6382;48.614;8.880;2023-04-30T08:46:06;16.40;99.90
12634;DHT22;6382;48.614;8.880;2023-04-30T08:48:33;13.40;99.90
12634;DHT22;6382;48.614;8.880;2023-04-30T08:51:00;15.30;99.90
12634;DHT22;6382;48.614;8.880;2023-04-30T08:53:33;14.30;99.90
12634;DHT22;6382;48.614;8.880;2023-04-30T08:56:00;13.50;99.90
12634;DHT22;6382;48.614;8.880;2023-04-30T08:58:27;13.50;99.90
12634;DHT22;6382;48.614;8.880;2023-04-30T09:00:55;16.40;99.90
12634;DHT22;6382;48.614;8.880;2023-04-30T09:03:23;15.20;99.90
12634;DHT22;6382;48.614;8.880;2023-04-30T09:05:50;14.20;99.90
12634;DHT22;6382;48.614;8.880;2023-04-30T09:08:17;16.00;99.90
12634;DHT22;6382;48.614;8.880;2023-04-30T09:10:45;15.60;99.90
12634;DHT22;6382;48.614;8.880;2023-04-30T09:13:12;16.60;99.90
12634;DHT22;6382;48.614;8.880;2023-04-30T09:15:39;13.70;99.90
12634;DHT22;6382;48.614;8.880;2023-04-30T09:18:08;15.30;99.90
12634;DHT22;6382;48.614;8.880;2023-04-30T09:20:35;13.90;99.90
12634;DHT22;6382;48.614;8.880;2023-04-30T09:23:06;16.20;99.90
12634;DHT22;6382;48.614;8.880;2023-04-30T09:25:37;14.10;99.90
12634;DHT22;6382;48.614;8.880;2023-04-30T09:28:07;14.10;99.90
12634;DHT22;6382;48.614;8.880;2023-04-30T09:30:34;14.10;99.90
12634;DHT22;6382;48.614;8.880;2023-04-30T09:33:02;14.40;99.90
12634;DHT22;6382;48.614;8.880;2023-04-30T09:35:30;14.10;99.90
12634;DHT22;6382;48.614;8.880;2023-04-30T09:38:00;15.50;99.90
12634;DHT22;6382;48.614;8.880;2023-04-30T09:40:46;14.00;99.90
12634;DHT22;6382;48.614;8.880;2023-04-30T09:43:12;13.90;99.90
12634;DHT22;6382;48.614;8.880;2023-04-30T09:45:43;15.70;99.90
12634;DHT22;6382;48.614;8.880;2023-04-30T09:48:22;13.90;99.90
12634;DHT22;6382;48.614;8.880;2023-04-30T09:50:50;14.00;99.90
12634;DHT22;6382;48.614;8.880;2023-04-30T09:53:17;14.10;99.90
12634;DHT22;6382;48.614;8.880;2023-04-30T09:55:48;15.60;99.90
12634;DHT22;6382;48.614;8.880;2023-04-30T09:58:15;14.30;99.90
12634;DHT22;6382;48.614;8.880;2023-04-30T10:00:43;16.50;99.90
12634;DHT22;6382;48.614;8.880;2023-04-30T10:03:11;14.40;99.90
12634;DHT22;6382;48.614;8.880;2023-04-30T10:05:42;16.10;99.90
12634;DHT22;6382;48.614;8.880;2023-04-30T10:08:14;14.40;99.90
12634;DHT22;6382;48.614;8.880;2023-04-30T10:10:44;14.30;99.90
12634;DHT22;6382;48.614;8.880;2023-04-30T10:13:13;14.40;99.90
12634;DHT22;6382;48.614;8.880;2023-04-30T10:15:44;16.10;99.90
12634;DHT22;6382;48.614;8.880;2023-04-30T10:18:18;15.60;99.90
12634;DHT22;6382;48.614;8.880;2023-04-30T10:20:45;14.70;99.90
12634;DHT22;6382;48.614;8.880;2023-04-30T10:23:12;15.00;99.90
12634;DHT22;6382;48.614;8.880;2023-04-30T10:25:39;15.10;99.90
12634;DHT22;6382;48.614;8.880;2023-04-30T10:28:09;14.70;99.90
12634;DHT22;6382;48.614;8.880;2023-04-30T10:30:36;14.20;99.90
12634;DHT22;6382;48.614;8.880;2023-04-30T10:35:46;14.40;99.90
12634;DHT22;6382;48.614;8.880;2023-04-30T10:38:19;14.50;99.90
12634;DHT22;6382;48.614;8.880;2023-04-30T10:40:47;15.60;99.90
12634;DHT22;6382;48.614;8.880;2023-04-30T10:43:16;16.60;99.90
12634;DHT22;6382;48.614;8.880;2023-04-30T10:45:43;17.30;99.90
12634;DHT22;6382;48.614;8.880;2023-04-30T10:48:10;16.80;99.90
12634;DHT22;6382;48.614;8.880;2023-04-30T10:50:43;14.70;99.90
12634;DHT22;6382;48.614;8.880;2023-04-30T10:53:16;15.40;99.90
12634;DHT22;6382;48.614;8.880;2023-04-30T10:58:30;14.80;99.90
12634;DHT22;6382;48.614;8.880;2023-04-30T11:01:00;14.90;99.90
12634;DHT22;6382;48.614;8.880;2023-04-30T11:03:27;14.90;99.90
12634;DHT22;6382;48.614;8.880;2023-04-30T11:05:54;17.10;99.90
12634;DHT22;6382;48.614;8.880;2023-04-30T11:08:31;17.30;99.90
12634;DHT22;6382;48.614;8.880;2023-04-30T11:10:59;15.10;99.90
12634;DHT22;6382;48.614;8.880;2023-04-30T11:13:46;16.10;99.90
12634;DHT22;6382;48.614;8.880;2023-04-30T11:16:16;14.80;99.90
12634;DHT22;6382;48.614;8.880;2023-04-30T11:18:43;14.80;99.90
12634;DHT22;6382;48.614;8.880;2023-04-30T11:21:11;15.60;99.90
12634;DHT22;6382;48.614;8.880;2023-04-30T11:23:41;15.00;99.90
12634;DHT22;6382;48.614;8.880;2023-04-30T11:26:09;15.10;99.90
12634;DHT22;6382;48.614;8.880;2023-04-30T11:28:36;15.40;99.90
12634;DHT22;6382;48.614;8.880;2023-04-30T11:31:03;16.60;99.90
12634;DHT22;6382;48.614;8.880;2023-04-30T11:33:31;15.10;99.90
12634;DHT22;6382;48.614;8.880;2023-04-30T11:35:59;16.90;99.90
12634;DHT22;6382;48.614;8.880;2023-04-30T11:38:27;15.10;99.90
12634;DHT22;6382;48.614;8.880;2023-04-30T11:40:53;17.20;99.90
12634;DHT22;6382;48.614;8.880;2023-04-30T11:43:21;15.00;99.90
12634;DHT22;6382;48.614;8.880;2023-04-30T11:48:28;15.10;99.90
12634;DHT22;6382;48.614;8.880;2023-04-30T11:50:55;15.20;99.90
12634;DHT22;6382;48.614;8.880;2023-04-30T11:53:26;17.40;99.90
12634;DHT22;6382;48.614;8.880;2023-04-30T11:55:53;15.10;99.90
12634;DHT22;6382;48.614;8.880;2023-04-30T11:58:21;15.10;99.90
12634;DHT22;6382;48.614;8.880;2023-04-30T12:00:49;15.20;99.90
12634;DHT22;6382;48.614;8.880;2023-04-30T12:03:17;16.80;99.90
12634;DHT22;6382;48.614;8.880;2023-04-30T12:05:44;16.10;99.90
12634;DHT22;6382;48.614;8.880;2023-04-30T12:08:11;16.50;99.90
12634;DHT22;6382;48.614;8.880;2023-04-30T12:10:38;16.60;99.90
12634;DHT22;6382;48.614;8.880;2023-04-30T12:13:05;18.00;99.90
12634;DHT22;6382;48.614;8.880;2023-04-30T12:15:31;18.30;99.90
12634;DHT22;6382;48.614;8.880;2023-04-30T12:17:58;15.90;99.90
12634;DHT22;6382;48.614;8.880;2023-04-30T12:20:26;18.50;99.90
12634;DHT22;6382;48.614;8.880;2023-04-30T12:22:54;15.70;99.90
12634;DHT22;6382;48.614;8.880;2023-04-30T12:25:21;17.40;99.90
12634;DHT22;6382;48.614;8.880;2023-04-30T12:27:48;16.70;99.90
12634;DHT22;6382;48.614;8.880;2023-04-30T12:30:19;16.90;99.90
12634;DHT22;6382;48.614;8.880;2023-04-30T12:32:50;15.70;99.90
12634;DHT22;6382;48.614;8.880;2023-04-30T12:35:18;15.70;99.90
12634;DHT22;6382;48.614;8.880;2023-04-30T12:37:46;17.00;99.90
12634;DHT22;6382;48.614;8.880;2023-04-30T12:40:13;18.60;99.90
12634;DHT22;6382;48.614;8.880;2023-04-30T12:42:43;15.80;99.90
12634;DHT22;6382;48.614;8.880;2023-04-30T12:45:10;15.80;99.90
12634;DHT22;6382;48.614;8.880;2023-04-30T12:47:38;16.30;99.90
12634;DHT22;6382;48.614;8.880;2023-04-30T12:50:09;17.70;99.90
12634;DHT22;6382;48.614;8.880;2023-04-30T12:52:38;16.00;99.90
12634;DHT22;6382;48.614;8.880;2023-04-30T12:55:16;17.50;99.90
12634;DHT22;6382;48.614;8.880;2023-04-30T13:00:47;16.30;99.90
12634;DHT22;6382;48.614;8.880;2023-04-30T13:03:14;16.30;99.90
12634;DHT22;6382;48.614;8.880;2023-04-30T13:05:45;16.80;99.90
12634;DHT22;6382;48.614;8.880;2023-04-30T13:08:12;16.20;99.90
12634;DHT22;6382;48.614;8.880;2023-04-30T13:10:39;17.10;99.90
12634;DHT22;6382;48.614;8.880;2023-04-30T13:13:06;17.30;99.90
12634;DHT22;6382;48.614;8.880;2023-04-30T13:15:32;18.80;99.90
12634;DHT22;6382;48.614;8.880;2023-04-30T13:17:59;16.60;99.90
12634;DHT22;6382;48.614;8.880;2023-04-30T13:20:26;16.60;99.90
12634;DHT22;6382;48.614;8.880;2023-04-30T13:22:53;16.90;99.90
12634;DHT22;6382;48.614;8.880;2023-04-30T13:25:20;16.70;99.90
12634;DHT22;6382;48.614;8.880;2023-04-30T13:27:47;17.70;99.90
12634;DHT22;6382;48.614;8.880;2023-04-30T13:30:14;17.40;99.90
12634;DHT22;6382;48.614;8.880;2023-04-30T13:32:41;16.20;99.90
12634;DHT22;6382;48.614;8.880;2023-04-30T13:35:08;17.60;99.90
12634;DHT22;6382;48.614;8.880;2023-04-30T13:37:35;16.30;99.90
12634;DHT22;6382;48.614;8.880;2023-04-30T13:40:03;16.20;99.90
12634;DHT22;6382;48.614;8.880;2023-04-30T13:42:31;16.10;99.90
12634;DHT22;6382;48.614;8.880;2023-04-30T13:44:57;16.10;99.90
12634;DHT22;6382;48.614;8.880;2023-04-30T13:47:24;16.10;99.90
12634;DHT22;6382;48.614;8.880;2023-04-30T13:49:51;17.80;99.90
12634;DHT22;6382;48.614;8.880;2023-04-30T13:52:18;18.10;99.90
12634;DHT22;6382;48.614;8.880;2023-04-30T13:54:45;16.00;99.90
12634;DHT22;6382;48.614;8.880;2023-04-30T13:57:12;16.60;99.90
12634;DHT22;6382;48.614;8.880;2023-04-30T13:59:39;16.00;99.90
12634;DHT22;6382;48.614;8.880;2023-04-30T14:02:05;17.40;99.90
12634;DHT22;6382;48.614;8.880;2023-04-30T14:04:32;16.00;99.90
12634;DHT22;6382;48.614;8.880;2023-04-30T14:07:00;18.40;99.90
12634;DHT22;6382;48.614;8.880;2023-04-30T14:09:27;16.00;99.90
12634;DHT22;6382;48.614;8.880;2023-04-30T14:11:54;18.50;99.90
12634;DHT22;6382;48.614;8.880;2023-04-30T14:14:24;16.60;99.90
12634;DHT22;6382;48.614;8.880;2023-04-30T14:16:52;15.90;99.90
12634;DHT22;6382;48.614;8.880;2023-04-30T14:19:20;16.00;99.90
12634;DHT22;6382;48.614;8.880;2023-04-30T14:21:47;16.60;99.90
12634;DHT22;6382;48.614;8.880;2023-04-30T14:24:13;19.00;99.90
12634;DHT22;6382;48.614;8.880;2023-04-30T14:26:41;16.10;99.90
12634;DHT22;6382;48.614;8.880;2023-04-30T14:29:08;16.10;99.90
12634;DHT22;6382;48.614;8.880;2023-04-30T14:31:35;17.80;99.90
12634;DHT22;6382;48.614;8.880;2023-04-30T14:34:02;16.20;99.90
12634;DHT22;6382;48.614;8.880;2023-04-30T14:36:29;16.30;99.90
12634;DHT22;6382;48.614;8.880;2023-04-30T14:38:55;16.30;99.90
12634;DHT22;6382;48.614;8.880;2023-04-30T14:41:22;18.50;99.90
12634;DHT22;6382;48.614;8.880;2023-04-30T14:43:49;17.10;99.90
12634;DHT22;6382;48.614;8.880;2023-04-30T14:46:15;18.60;99.90
12634;DHT22;6382;48.614;8.880;2023-04-30T14:48:42;17.30;99.90
12634;DHT22;6382;48.614;8.880;2023-04-30T14:51:10;17.10;99.90
12634;DHT22;6382;48.614;8.880;2023-04-30T14:53:37;18.60;99.90
12634;DHT22;6382;48.614;8.880;2023-04-30T14:56:04;17.40;99.90
12634;DHT22;6382;48.614;8.880;2023-04-30T14:58:32;16.00;99.90
12634;DHT22;6382;48.614;8.880;2023-04-30T15:00:59;16.10;99.90
12634;DHT22;6382;48.614;8.880;2023-04-30T15:03:26;17.00;99.90
12634;DHT22;6382;48.614;8.880;2023-04-30T15:05:53;16.40;99.90
12634;DHT22;6382;48.614;8.880;2023-04-30T15:08:19;17.60;99.90
12634;DHT22;6382;48.614;8.880;2023-04-30T15:10:46;18.10;99.90
12634;DHT22;6382;48.614;8.880;2023-04-30T15:13:13;18.40;99.90
12634;DHT22;6382;48.614;8.880;2023-04-30T15:15:40;18.70;99.90
12634;DHT22;6382;48.614;8.880;2023-04-30T15:18:07;18.60;99.90
12634;DHT22;6382;48.614;8.880;2023-04-30T15:20:35;17.30;99.90
12634;DHT22;6382;48.614;8.880;2023-04-30T15:23:02;17.10;99.90
12634;DHT22;6382;48.614;8.880;2023-04-30T15:25:29;18.10;99.90
12634;DHT22;6382;48.614;8.880;2023-04-30T15:27:55;18.20;99.90
12634;DHT22;6382;48.614;8.880;2023-04-30T15:30:22;16.30;99.90
12634;DHT22;6382;48.614;8.880;2023-04-30T15:32:49;18.70;99.90
12634;DHT22;6382;48.614;8.880;2023-04-30T15:35:16;17.50;99.90
12634;DHT22;6382;48.614;8.880;2023-04-30T15:37:43;16.30;99.90
12634;DHT22;6382;48.614;8.880;2023-04-30T15:40:10;17.40;99.90
12634;DHT22;6382;48.614;8.880;2023-04-30T15:42:41;16.10;99.90
12634;DHT22;6382;48.614;8.880;2023-04-30T15:45:08;16.20;99.90
12634;DHT22;6382;48.614;8.880;2023-04-30T15:47:38;16.10;99.90
12634;DHT22;6382;48.614;8.880;2023-04-30T15:50:06;16.50;99.90
12634;DHT22;6382;48.614;8.880;2023-04-30T15:52:32;16.00;99.90
12634;DHT22;6382;48.614;8.880;2023-04-30T15:54:59;16.00;99.90
12634;DHT22;6382;48.614;8.880;2023-04-30T15:57:26;18.60;99.90
12634;DHT22;6382;48.614;8.880;2023-04-30T15:59:53;16.50;99.90
12634;DHT22;6382;48.614;8.880;2023-04-30T16:02:20;17.60;99.90
12634;DHT22;6382;48.614;8.880;2023-04-30T16:04:47;17.30;99.90
12634;DHT22;6382;48.614;8.880;2023-04-30T16:07:14;18.50;99.90
12634;DHT22;6382;48.614;8.880;2023-04-30T16:09:41;17.00;99.90
12634;DHT22;6382;48.614;8.880;2023-04-30T16:12:11;15.80;99.90
12634;DHT22;6382;48.614;8.880;2023-04-30T16:14:38;15.70;99.90
12634;DHT22;6382;48.614;8.880;2023-04-30T16:17:05;15.90;99.90